Terminal Aerodrome Forecast
Issued by NWS

Home | Current Version | Previous Version | Text Only | Print | Product List | Glossary Off
Versions: 1 2 3 4 5 6 7 8 9 10 11 12 13 14 15 16 17 18 19 20 21 22 23 24 25 26 27 28

000
FTUS43 KTOP 262108 AAC
TAFFOE
TAF AMD
KFOE 262108Z 2621/2718 12015G22KT P6SM VCTS BKN025CB
      TEMPO 2621/2701 VRB20G40KT 2SM TSRA BR BKN035CB
     FM271100 16011KT P6SM BKN040=

USA.gov is the U.S. government's official web portal to all federal, state and local government web resources and services.